createdAt,value
2018-06-08T00:00:04.627Z,100032.06
2018-06-08T00:01:10.626Z,100030.41
2018-06-08T00:02:16.601Z,100028.05
2018-06-08T00:03:22.864Z,100023.05
2018-06-08T00:04:28.909Z,100028.74
2018-06-08T00:05:34.547Z,100029.25
2018-06-08T00:06:40.475Z,100026.92
2018-06-08T00:07:46.101Z,100024.25
2018-06-08T00:08:51.977Z,100029.45
2018-06-08T00:09:57.923Z,100026.78
2018-06-08T00:11:04.130Z,100032.12
2018-06-08T00:12:10.088Z,100029.10
2018-06-08T00:13:15.750Z,100028.61
2018-06-08T00:14:21.737Z,100025.25
2018-06-08T00:15:27.694Z,100028.41
2018-06-08T00:16:33.676Z,100026.91
2018-06-08T00:17:39.739Z,100028.41
2018-06-08T00:18:45.754Z,100028.11
2018-06-08T00:19:51.713Z,100027.93
2018-06-08T00:20:57.680Z,100022.09
2018-06-08T00:22:03.702Z,100027.09
2018-06-08T00:23:09.681Z,100028.11
2018-06-08T00:24:15.626Z,100031.77
2018-06-08T00:25:21.682Z,100028.76
2018-06-08T00:26:27.650Z,100023.56
2018-06-08T00:27:33.663Z,100019.06
2018-06-08T00:28:39.650Z,100020.89
2018-06-08T00:29:45.603Z,100024.05
2018-06-08T00:30:51.639Z,100019.87
2018-06-08T00:31:57.662Z,100023.53
2018-06-08T00:33:03.695Z,100022.20
2018-06-08T00:34:09.321Z,100016.02
2018-06-08T00:35:15.188Z,100022.53
2018-06-08T00:36:21.148Z,100025.00
2018-06-08T00:37:27.104Z,100021.33
2018-06-08T00:38:33.110Z,100021.97
2018-06-08T00:39:39.027Z,100018.80
2018-06-08T00:40:44.947Z,100016.48
2018-06-08T00:41:50.918Z,100020.84
2018-06-08T00:42:56.891Z,100020.64
2018-06-08T00:44:03.110Z,100018.94
2018-06-08T00:45:09.206Z,100019.92
2018-06-08T00:46:15.299Z,100022.44
2018-06-08T00:47:21.274Z,100015.27
2018-06-08T00:48:27.225Z,100021.76
2018-06-08T00:49:33.194Z,100018.94
2018-06-08T00:50:39.163Z,100018.59
2018-06-08T00:51:45.133Z,100016.27
2018-06-08T00:52:51.161Z,100015.43
2018-06-08T00:53:57.219Z,100012.59
2018-06-08T00:55:03.191Z,100012.59
2018-06-08T00:56:23.495Z,100013.09
2018-06-08T00:57:29.151Z,100012.74
2018-06-08T00:58:35.136Z,100007.39
2018-06-08T00:59:41.094Z,100010.55
2018-06-08T01:00:47.074Z,100012.52
2018-06-08T01:01:53.370Z,100014.53
2018-06-08T01:02:59.332Z,100003.98
2018-06-08T01:04:05.449Z,100008.48
2018-06-08T01:05:11.411Z,100007.09
2018-06-08T01:06:17.409Z,100005.41
2018-06-08T01:07:23.715Z,100006.75
2018-06-08T01:08:29.702Z,100017.08
2018-06-08T01:09:35.655Z,100006.73
2018-06-08T01:10:41.595Z,100012.56
2018-06-08T01:11:47.573Z,100009.08
2018-06-08T01:12:53.509Z,100014.06
2018-06-08T01:13:59.209Z,100011.92
2018-06-08T01:15:05.540Z,100016.42
2018-06-08T01:16:11.782Z,100017.75
2018-06-08T01:17:17.779Z,100014.24
2018-06-08T01:18:23.763Z,100016.71
2018-06-08T01:19:32.684Z,100016.55
2018-06-08T01:20:38.907Z,100013.18
2018-06-08T01:21:44.889Z,100013.85
2018-06-08T01:22:50.887Z,100018.00
2018-06-08T01:23:56.831Z,100007.62
2018-06-08T01:25:02.794Z,100012.79
2018-06-08T01:26:08.799Z,100008.09
2018-06-08T01:27:14.920Z,100007.22
2018-06-08T01:28:21.214Z,100009.72
2018-06-08T01:29:27.301Z,100008.68
2018-06-08T01:30:33.284Z,100012.16
2018-06-08T01:31:39.392Z,100013.50
2018-06-08T01:32:45.343Z,100010.97
2018-06-08T01:33:51.329Z,100010.59
2018-06-08T01:34:57.383Z,100013.27
2018-06-08T01:36:03.325Z,100005.09
2018-06-08T01:37:09.313Z,100007.73
2018-06-08T01:38:15.348Z,100006.05
2018-06-08T01:39:21.326Z,100006.52
2018-06-08T01:40:27.327Z,100004.94
2018-06-08T01:41:33.262Z,100006.70
2018-06-08T01:42:39.329Z,100013.83
2018-06-08T01:43:45.315Z,100012.09
2018-06-08T01:44:51.282Z,100004.69
2018-06-08T01:45:57.279Z,100004.30
2018-06-08T01:47:03.223Z,100007.63
2018-06-08T01:48:09.187Z,100009.21
2018-06-08T01:49:15.137Z,100008.61
2018-06-08T01:50:21.119Z,100011.41
2018-06-08T01:51:27.078Z,100006.02
2018-06-08T01:52:33.110Z,100009.13
2018-06-08T01:53:39.080Z,100010.56
2018-06-08T01:54:45.110Z,100013.53
2018-06-08T01:55:51.076Z,100010.52
2018-06-08T01:56:57.059Z,100006.13
2018-06-08T01:58:03.022Z,100016.59
2018-06-08T01:59:09.064Z,100007.55
2018-06-08T02:00:15.009Z,100007.06
2018-06-08T02:01:20.987Z,100008.70
2018-06-08T02:02:27.070Z,100009.69
2018-06-08T02:03:33.082Z,100005.99
2018-06-08T02:04:39.045Z,100007.65
2018-06-08T02:05:44.978Z,100002.32
2018-06-08T02:06:50.966Z,100004.17
2018-06-08T02:07:57.084Z,100006.84
2018-06-08T02:09:03.117Z,100002.98
2018-06-08T02:10:09.084Z,100000.95
2018-06-08T02:11:15.056Z,100005.59
2018-06-08T02:12:21.015Z,100005.88
2018-06-08T02:13:26.939Z,100004.55
2018-06-08T02:14:33.062Z,100003.27
2018-06-08T02:15:39.035Z,100006.09
2018-06-08T02:16:44.966Z,100011.02
2018-06-08T02:17:51.093Z,100005.13
2018-06-08T02:18:57.160Z,100004.64
2018-06-08T02:20:03.145Z,100004.59
2018-06-08T02:21:09.143Z,100001.17
2018-06-08T02:22:15.181Z,100005.69
2018-06-08T02:23:21.266Z,99996.51
2018-06-08T02:24:27.205Z,99997.62
2018-06-08T02:25:33.174Z,99993.45
2018-06-08T02:26:39.105Z,99994.07
2018-06-08T02:27:45.079Z,99995.89
2018-06-08T02:28:51.063Z,99995.05
2018-06-08T02:29:57.037Z,99992.55
2018-06-08T02:31:02.989Z,99997.47
2018-06-08T02:32:08.943Z,99993.13
2018-06-08T02:33:14.903Z,99996.16
2018-06-08T02:34:20.886Z,99994.62
2018-06-08T02:35:26.839Z,99990.08
2018-06-08T02:36:32.405Z,99993.66
2018-06-08T02:37:38.248Z,99997.24
2018-06-08T02:38:44.229Z,99998.22
2018-06-08T02:39:50.219Z,100000.03
2018-06-08T02:40:55.906Z,99995.02
2018-06-08T02:42:01.767Z,99996.97
2018-06-08T02:43:07.731Z,100000.05
2018-06-08T02:44:13.718Z,99998.53
2018-06-08T02:45:19.741Z,99995.22
2018-06-08T02:46:25.693Z,99999.70
2018-06-08T02:47:31.637Z,99998.12
2018-06-08T02:48:37.667Z,99996.70
2018-06-08T02:49:43.616Z,99993.42
2018-06-08T02:50:49.254Z,99995.23
2018-06-08T02:51:55.133Z,99994.27
2018-06-08T02:53:01.130Z,99993.52
2018-06-08T02:54:07.229Z,99998.52
2018-06-08T02:55:13.187Z,99990.86
2018-06-08T02:56:19.206Z,99997.51
2018-06-08T02:57:25.167Z,99994.27
2018-06-08T02:58:31.096Z,100000.91
2018-06-08T02:59:37.419Z,99994.36
2018-06-08T03:00:43.360Z,99997.80
2018-06-08T03:01:49.323Z,99997.19
2018-06-08T03:02:55.391Z,99995.34
2018-06-08T03:04:01.316Z,99990.68
2018-06-08T03:05:07.352Z,99992.84
2018-06-08T03:06:13.323Z,99994.73
2018-06-08T03:07:19.292Z,99997.39
2018-06-08T03:08:25.250Z,99995.02
2018-06-08T03:09:31.202Z,99987.44
2018-06-08T03:10:37.174Z,99990.95
2018-06-08T03:11:43.160Z,99989.61
2018-06-08T03:12:49.136Z,99987.12
2018-06-08T03:13:55.099Z,99990.52
2018-06-08T03:15:01.057Z,99982.12
2018-06-08T03:16:07.034Z,99986.63
2018-06-08T03:17:12.968Z,99985.63
2018-06-08T03:18:18.994Z,99985.37
2018-06-08T03:19:24.943Z,99980.89
2018-06-08T03:20:30.906Z,99987.05
2018-06-08T03:21:36.942Z,99984.94
2018-06-08T03:22:42.929Z,99985.30
2018-06-08T03:23:48.546Z,99985.23
2018-06-08T03:24:54.102Z,99982.77
2018-06-08T03:25:59.979Z,99986.62
2018-06-08T03:27:06.115Z,99988.30
2018-06-08T03:28:12.084Z,99986.45
2018-06-08T03:29:18.047Z,99989.53
2018-06-08T03:30:24.022Z,99983.33
2018-06-08T03:31:29.990Z,99992.73
2018-06-08T03:32:36.035Z,99988.31
2018-06-08T03:33:42.540Z,99991.52
2018-06-08T03:34:48.514Z,99988.91
2018-06-08T03:35:54.542Z,99990.30
2018-06-08T03:37:00.684Z,99990.03
2018-06-08T03:38:06.899Z,99988.53
2018-06-08T03:39:12.992Z,99989.95
2018-06-08T03:40:19.015Z,99992.66
2018-06-08T03:41:25.127Z,99994.18
2018-06-08T03:42:31.173Z,99985.93
2018-06-08T03:43:37.107Z,99991.80
2018-06-08T03:44:43.085Z,99989.84
2018-06-08T03:45:49.228Z,99994.64
2018-06-08T03:46:55.188Z,99991.44
2018-06-08T03:48:01.177Z,99989.00
2018-06-08T03:49:07.142Z,99986.77
2018-06-08T03:50:13.120Z,99994.32
2018-06-08T03:51:19.190Z,99991.49
2018-06-08T03:52:24.922Z,99985.84
2018-06-08T03:53:30.885Z,99992.33
2018-06-08T03:54:36.835Z,99993.66
2018-06-08T03:55:42.835Z,99991.25
2018-06-08T03:56:49.331Z,99994.75
2018-06-08T03:57:55.022Z,99997.25
2018-06-08T03:59:00.549Z,99996.89
2018-06-08T04:00:06.393Z,100000.62
2018-06-08T04:01:12.310Z,99999.23
2018-06-08T04:02:18.339Z,99999.64
2018-06-08T04:03:24.299Z,100000.23
2018-06-08T04:04:30.255Z,99999.80
2018-06-08T04:05:36.287Z,99995.80
2018-06-08T04:06:42.216Z,99998.33
2018-06-08T04:07:48.187Z,99995.53
2018-06-08T04:08:54.124Z,99997.70
2018-06-08T04:10:00.088Z,99988.88
2018-06-08T04:11:06.059Z,99995.45
2018-06-08T04:12:11.800Z,99999.80
2018-06-08T04:13:17.772Z,100003.03
2018-06-08T04:14:23.771Z,99996.74
2018-06-08T04:15:29.718Z,99993.32
2018-06-08T04:16:35.671Z,99997.01
2018-06-08T04:17:41.629Z,99990.35
2018-06-08T04:18:47.609Z,99995.73
2018-06-08T04:19:53.570Z,99991.81
2018-06-08T04:20:59.539Z,99986.09
2018-06-08T04:22:05.726Z,99988.09
2018-06-08T04:23:11.675Z,99987.16
2018-06-08T04:24:17.708Z,99988.25
2018-06-08T04:25:23.567Z,99987.31
2018-06-08T04:26:29.529Z,99984.83
2018-06-08T04:27:35.140Z,99983.68
2018-06-08T04:28:41.055Z,99984.69
2018-06-08T04:29:47.028Z,99988.03
2018-06-08T04:30:52.983Z,99980.39
2018-06-08T04:31:59.041Z,99989.53
2018-06-08T04:33:05.020Z,99987.89
2018-06-08T04:34:11.138Z,99990.47
2018-06-08T04:35:17.107Z,99993.40
2018-06-08T04:36:23.073Z,99999.92
2018-06-08T04:37:29.040Z,99996.81
2018-06-08T04:38:34.998Z,99995.79
2018-06-08T04:39:40.990Z,99995.66
2018-06-08T04:40:47.079Z,99996.02
2018-06-08T04:41:53.062Z,100000.89
2018-06-08T04:42:58.995Z,100001.55
2018-06-08T04:44:05.167Z,99998.94
2018-06-08T04:45:10.810Z,100000.13
2018-06-08T04:46:16.442Z,100001.19
2018-06-08T04:47:22.318Z,99996.22
2018-06-08T04:48:28.309Z,99998.92
2018-06-08T04:49:34.265Z,100002.81
2018-06-08T04:50:40.231Z,99999.31
2018-06-08T04:51:45.985Z,99995.03
2018-06-08T04:52:52.064Z,99998.86
2018-06-08T04:53:58.113Z,99994.91
2018-06-08T04:55:04.433Z,99990.73
2018-06-08T04:56:10.051Z,99989.05
2018-06-08T04:57:15.606Z,99992.90
2018-06-08T04:58:21.503Z,99988.41
2018-06-08T04:59:28.202Z,99992.41
2018-06-08T05:00:34.213Z,99990.13
2018-06-08T05:01:40.146Z,99984.48
2018-06-08T05:02:46.142Z,100001.53
2018-06-08T05:03:52.729Z,99987.55
2018-06-08T05:04:58.701Z,99989.58
2018-06-08T05:06:04.683Z,99996.23
2018-06-08T05:07:10.678Z,99995.75
2018-06-08T05:08:16.895Z,99999.56
2018-06-08T05:09:22.858Z,100010.47
2018-06-08T05:10:28.810Z,100001.28
2018-06-08T05:11:34.722Z,100000.30
2018-06-08T05:12:40.669Z,99996.83
2018-06-08T05:13:46.661Z,100003.67
2018-06-08T05:14:52.611Z,100003.35
2018-06-08T05:15:58.578Z,99999.95
2018-06-08T05:17:04.554Z,99994.16
2018-06-08T05:18:10.489Z,99998.69
2018-06-08T05:19:16.461Z,100006.55
2018-06-08T05:20:22.510Z,100008.89
2018-06-08T05:21:28.435Z,100013.17
2018-06-08T05:22:34.687Z,100017.38
2018-06-08T05:23:40.743Z,100015.24
2018-06-08T05:24:46.821Z,100022.40
2018-06-08T05:25:53.026Z,100019.59
2018-06-08T05:26:59.032Z,100016.36
2018-06-08T05:28:05.011Z,100018.59
2018-06-08T05:29:11.139Z,100020.48
2018-06-08T05:30:19.826Z,100016.72
2018-06-08T05:31:25.785Z,100016.11
2018-06-08T05:32:31.782Z,100016.48
2018-06-08T05:33:37.810Z,100010.16
2018-06-08T05:34:43.754Z,100016.86
2018-06-08T05:35:50.129Z,100010.23
2018-06-08T05:36:56.177Z,100009.30
2018-06-08T05:38:02.221Z,100011.00
2018-06-08T05:39:12.289Z,100014.73
2018-06-08T05:40:18.640Z,100011.08
2018-06-08T05:41:24.661Z,100008.23
2018-06-08T05:42:30.660Z,100011.27
2018-06-08T05:43:36.639Z,100010.83
2018-06-08T05:44:42.586Z,100012.85
2018-06-08T05:45:48.567Z,100009.21
2018-06-08T05:46:54.607Z,100011.92
2018-06-08T05:48:00.604Z,100008.95
2018-06-08T05:49:06.567Z,100013.66
2018-06-08T05:50:12.580Z,100007.34
2018-06-08T05:51:18.551Z,100009.20
2018-06-08T05:52:24.581Z,100002.89
2018-06-08T05:53:30.567Z,100002.66
2018-06-08T05:54:36.509Z,99998.75
2018-06-08T05:55:42.567Z,100000.80
2018-06-08T05:56:48.536Z,100001.31
2018-06-08T05:57:59.802Z,99999.31
2018-06-08T05:59:06.263Z,99997.57
2018-06-08T06:00:12.192Z,100005.45
2018-06-08T06:01:18.147Z,100000.47
2018-06-08T06:02:24.310Z,100001.01
2018-06-08T06:03:30.292Z,100004.50
2018-06-08T06:04:36.247Z,100001.84
2018-06-08T06:05:42.199Z,100002.23
2018-06-08T06:06:48.180Z,100001.73
2018-06-08T06:07:54.150Z,100005.67
2018-06-08T06:09:00.127Z,100002.70
2018-06-08T06:10:07.116Z,100000.11
2018-06-08T06:11:13.216Z,100006.98
2018-06-08T06:12:19.161Z,100010.68
2018-06-08T06:13:25.103Z,100009.58
2018-06-08T06:14:31.189Z,100011.49
2018-06-08T06:15:37.285Z,100007.56
2018-06-08T06:16:43.562Z,100008.47
2018-06-08T06:17:49.699Z,100009.31
2018-06-08T06:18:55.795Z,100012.98
2018-06-08T06:20:02.087Z,100008.27
2018-06-08T06:21:08.304Z,100014.43
2018-06-08T06:22:14.279Z,100020.84
2018-06-08T06:23:20.368Z,100009.75
2018-06-08T06:24:26.519Z,100013.99
2018-06-08T06:25:32.485Z,100014.10
2018-06-08T06:26:38.132Z,100012.12
2018-06-08T06:27:44.019Z,100013.84
2018-06-08T06:28:50.104Z,100015.10
2018-06-08T06:29:56.136Z,100016.53
2018-06-08T06:31:02.136Z,100009.80
2018-06-08T06:32:08.377Z,100011.44
2018-06-08T06:33:14.360Z,100013.95
2018-06-08T06:34:20.340Z,100018.62
2018-06-08T06:35:26.379Z,100013.35
2018-06-08T06:36:32.380Z,100018.48
2018-06-08T06:37:38.476Z,100018.04
2018-06-08T06:38:44.463Z,100016.09
2018-06-08T06:39:50.478Z,100018.67
2018-06-08T06:40:56.209Z,100021.67
2018-06-08T06:42:02.120Z,100015.83
2018-06-08T06:43:08.142Z,100023.30
2018-06-08T06:44:14.008Z,100015.43
2018-06-08T06:45:19.775Z,100022.05
2018-06-08T06:46:25.466Z,100019.44
2018-06-08T06:47:31.271Z,100021.23
2018-06-08T06:48:36.978Z,100016.86
2018-06-08T06:49:42.770Z,100013.90
2018-06-08T06:50:48.504Z,100012.25
2018-06-08T06:51:54.206Z,100013.08
2018-06-08T06:52:59.990Z,100007.02
2018-06-08T06:54:05.813Z,100009.17
2018-06-08T06:55:11.551Z,100010.25
2018-06-08T06:56:19.741Z,100008.90
2018-06-08T06:57:25.354Z,100018.77
2018-06-08T06:58:31.114Z,100017.61
2018-06-08T06:59:36.822Z,100006.56
2018-06-08T07:00:42.737Z,100015.59
2018-06-08T07:01:48.429Z,100019.78
2018-06-08T07:02:54.132Z,100014.33
2018-06-08T07:03:59.824Z,100020.75
2018-06-08T07:05:05.533Z,100017.82
2018-06-08T07:06:11.156Z,100017.47
2018-06-08T07:07:16.919Z,100025.06
2018-06-08T07:08:22.724Z,100020.77
2018-06-08T07:09:28.475Z,100019.99
2018-06-08T07:10:34.271Z,100017.52
2018-06-08T07:11:39.681Z,100017.23
2018-06-08T07:12:45.347Z,100024.08
2018-06-08T07:13:51.215Z,100022.81
2018-06-08T07:14:56.918Z,100022.69
2018-06-08T07:16:02.668Z,100027.81
2018-06-08T07:17:08.487Z,100030.80
2018-06-08T07:18:14.235Z,100031.59
2018-06-08T07:19:20.091Z,100033.56
2018-06-08T07:20:26.365Z,100035.98
2018-06-08T07:21:31.710Z,100030.48
2018-06-08T07:22:37.371Z,100029.98
2018-06-08T07:23:43.135Z,100037.81
2018-06-08T07:24:49.115Z,100034.30
2018-06-08T07:25:55.050Z,100034.91
2018-06-08T07:27:00.758Z,100041.80
2018-06-08T07:28:06.455Z,100032.92
2018-06-08T07:29:12.252Z,100047.42
2018-06-08T07:30:18.159Z,100045.25
2018-06-08T07:31:23.954Z,100038.70
2018-06-08T07:32:30.270Z,100035.84
2018-06-08T07:33:36.051Z,100038.61
2018-06-08T07:34:42.057Z,100041.84
2018-06-08T07:35:48.627Z,100044.13
2018-06-08T07:36:54.347Z,100041.98
2018-06-08T07:38:00.021Z,100038.05
2018-06-08T07:39:08.103Z,100037.26
2018-06-08T07:40:13.887Z,100042.27
2018-06-08T07:41:19.936Z,100042.91
2018-06-08T07:42:26.005Z,100034.72
2018-06-08T07:43:32.027Z,100038.77
2018-06-08T07:44:37.863Z,100042.91
2018-06-08T07:45:43.342Z,100045.45
2018-06-08T07:46:49.085Z,100039.06
2018-06-08T07:47:55.015Z,100044.44
2018-06-08T07:49:00.734Z,100037.06
2018-06-08T07:50:06.137Z,100038.45
2018-06-08T07:51:11.857Z,100033.72
2018-06-08T07:52:17.634Z,100032.09
2018-06-08T07:53:24.340Z,100035.31
2018-06-08T07:54:30.123Z,100036.51
2018-06-08T07:55:35.962Z,100029.94
2018-06-08T07:56:41.831Z,100036.94
2018-06-08T07:57:48.051Z,100039.56
2018-06-08T07:58:53.811Z,100035.25
2018-06-08T07:59:59.632Z,100039.70
2018-06-08T08:01:05.769Z,100033.41
2018-06-08T08:02:11.671Z,100026.45
2018-06-08T08:03:17.469Z,100029.77
2018-06-08T08:04:23.458Z,100030.30
2018-06-08T08:05:29.251Z,100032.22
2018-06-08T08:06:35.089Z,100027.66
2018-06-08T08:07:40.763Z,100030.08
2018-06-08T08:08:46.456Z,100033.34
2018-06-08T08:09:52.214Z,100032.40
2018-06-08T08:10:57.968Z,100037.05
2018-06-08T08:12:03.732Z,100034.28
2018-06-08T08:13:09.646Z,100036.31
2018-06-08T08:14:17.068Z,100041.54
2018-06-08T08:15:24.661Z,100038.19
2018-06-08T08:16:30.370Z,100042.41
2018-06-08T08:17:37.911Z,100033.30
2018-06-08T08:18:45.216Z,100036.60
2018-06-08T08:19:50.966Z,100027.42
2018-06-08T08:20:56.671Z,100028.86
2018-06-08T08:22:02.992Z,100032.69
2018-06-08T08:23:08.706Z,100030.83
2018-06-08T08:24:14.707Z,100032.66
2018-06-08T08:25:20.726Z,100033.06
2018-06-08T08:26:26.507Z,100029.81
2018-06-08T08:27:32.485Z,100032.00
2018-06-08T08:28:38.579Z,100028.30
2018-06-08T08:29:44.275Z,100024.42
2018-06-08T08:30:49.959Z,100024.25
2018-06-08T08:31:55.696Z,100023.45
2018-06-08T08:33:01.928Z,100030.91
2018-06-08T08:34:08.208Z,100030.77
2018-06-08T08:35:14.408Z,100029.88
2018-06-08T08:36:20.558Z,100030.59
2018-06-08T08:37:26.824Z,100030.12
2018-06-08T08:38:32.883Z,100032.66
2018-06-08T08:39:38.995Z,100027.38
2018-06-08T08:40:44.774Z,100026.17
2018-06-08T08:41:50.601Z,100023.84
2018-06-08T08:42:56.365Z,100025.69
2018-06-08T08:44:02.128Z,100027.95
2018-06-08T08:45:07.967Z,100027.64
2018-06-08T08:46:13.687Z,100028.02
2018-06-08T08:47:19.522Z,100027.56
2018-06-08T08:48:25.250Z,100025.51
2018-06-08T08:49:30.958Z,100024.69
2018-06-08T08:50:36.827Z,100030.16
2018-06-08T08:51:42.549Z,100024.76
2018-06-08T08:52:48.173Z,100030.46
2018-06-08T08:53:54.303Z,100022.16
2018-06-08T08:55:00.041Z,100025.06
2018-06-08T08:56:06.871Z,100029.98
2018-06-08T08:57:13.808Z,100028.83
2018-06-08T08:58:19.897Z,100027.08
2018-06-08T08:59:25.643Z,100035.45
2018-06-08T09:00:31.353Z,100030.10
2018-06-08T09:01:37.047Z,100031.55
2018-06-08T09:02:42.823Z,100028.38
2018-06-08T09:03:48.642Z,100034.72
2018-06-08T09:04:54.626Z,100030.33
2018-06-08T09:06:00.370Z,100028.66
2018-06-08T09:07:06.194Z,100027.75
2018-06-08T09:08:11.899Z,100025.74
2018-06-08T09:09:17.588Z,100024.85
2018-06-08T09:10:23.282Z,100023.23
2018-06-08T09:11:29.034Z,100022.36
2018-06-08T09:12:36.825Z,100022.78
2018-06-08T09:13:43.147Z,100017.34
2018-06-08T09:14:49.949Z,100022.69
2018-06-08T09:15:57.049Z,100015.87
2018-06-08T09:17:03.425Z,100019.73
2018-06-08T09:18:10.081Z,100021.70
2018-06-08T09:19:15.943Z,100021.60
2018-06-08T09:20:21.679Z,100021.08
2018-06-08T09:21:27.482Z,100013.95
2018-06-08T09:22:33.199Z,100013.26
2018-06-08T09:23:38.898Z,100012.02
2018-06-08T09:24:44.642Z,100013.95
2018-06-08T09:25:50.350Z,100011.98
2018-06-08T09:26:55.762Z,100010.06
2018-06-08T09:28:01.363Z,100009.55
2018-06-08T09:29:07.033Z,100006.72
2018-06-08T09:30:12.771Z,100005.19
2018-06-08T09:31:18.674Z,100002.56
2018-06-08T09:32:24.495Z,99995.55
2018-06-08T09:33:30.281Z,100001.20
2018-06-08T09:34:35.983Z,100007.73
2018-06-08T09:35:41.672Z,99993.67
2018-06-08T09:36:47.387Z,99996.77
2018-06-08T09:37:53.095Z,99999.64
2018-06-08T09:38:58.776Z,99996.44
2018-06-08T09:40:04.504Z,99990.02
2018-06-08T09:41:10.223Z,99994.37
2018-06-08T09:42:15.918Z,99991.73
2018-06-08T09:43:21.746Z,99994.73
2018-06-08T09:44:27.458Z,99995.08
2018-06-08T09:45:33.397Z,99989.08
2018-06-08T09:46:39.155Z,99992.27
2018-06-08T09:47:44.846Z,99997.91
2018-06-08T09:48:50.319Z,99988.40
2018-06-08T09:49:55.923Z,99984.48
2018-06-08T09:51:01.684Z,99981.97
2018-06-08T09:52:07.362Z,99987.67
2018-06-08T09:53:13.055Z,99987.48
2018-06-08T09:54:18.763Z,99982.36
2018-06-08T09:55:24.467Z,99985.69
2018-06-08T09:56:30.155Z,99976.77
2018-06-08T09:57:35.886Z,99979.81
2018-06-08T09:58:41.612Z,99980.52
2018-06-08T09:59:47.336Z,99982.31
2018-06-08T10:00:53.158Z,99975.56
2018-06-08T10:01:58.832Z,99975.20
2018-06-08T10:03:04.646Z,99979.11
2018-06-08T10:04:10.311Z,99979.78
2018-06-08T10:05:16.068Z,99974.41
2018-06-08T10:06:21.943Z,99977.27
2018-06-08T10:07:27.683Z,99974.16
2018-06-08T10:08:33.398Z,99977.24
2018-06-08T10:09:39.155Z,99974.69
2018-06-08T10:10:44.882Z,99967.80
2018-06-08T10:11:50.621Z,99972.92
2018-06-08T10:12:56.365Z,99970.19
2018-06-08T10:14:02.059Z,99970.50
2018-06-08T10:15:08.110Z,99969.75
2018-06-08T10:16:14.218Z,99964.59
2018-06-08T10:17:20.012Z,99959.98
2018-06-08T10:18:25.708Z,99966.29
2018-06-08T10:19:31.442Z,99968.72
2018-06-08T10:20:37.172Z,99959.64
2018-06-08T10:21:42.892Z,99957.89
2018-06-08T10:22:48.596Z,99954.84
2018-06-08T10:23:54.292Z,99956.06
2018-06-08T10:25:00.039Z,99950.80
2018-06-08T10:26:05.757Z,99951.48
2018-06-08T10:27:11.499Z,99953.17
2018-06-08T10:28:17.194Z,99949.85
2018-06-08T10:29:23.103Z,99951.78
2018-06-08T10:30:28.782Z,99945.64
2018-06-08T10:31:34.487Z,99947.63
2018-06-08T10:32:40.200Z,99949.05
2018-06-08T10:33:45.885Z,99946.11
2018-06-08T10:34:51.590Z,99950.18
2018-06-08T10:35:57.337Z,99947.92
2018-06-08T10:37:03.038Z,99947.02
2018-06-08T10:38:09.128Z,99950.20
2018-06-08T10:39:14.838Z,99945.89
2018-06-08T10:40:20.588Z,99943.83
2018-06-08T10:41:26.453Z,99941.49
2018-06-08T10:42:32.213Z,99943.16
2018-06-08T10:43:37.930Z,99938.84
2018-06-08T10:44:44.024Z,99938.59
2018-06-08T10:45:50.171Z,99938.22
2018-06-08T10:46:56.132Z,99932.56
2018-06-08T10:48:02.096Z,99933.65
2018-06-08T10:49:08.111Z,99936.00
2018-06-08T10:50:14.163Z,99932.23
2018-06-08T10:51:20.115Z,99938.55
2018-06-08T10:52:26.108Z,99935.80
2018-06-08T10:53:32.090Z,99935.30
2018-06-08T10:54:38.415Z,99939.83
2018-06-08T10:55:44.373Z,99931.26
2018-06-08T10:56:50.825Z,99928.53
2018-06-08T10:57:56.842Z,99936.69
2018-06-08T10:59:02.460Z,99938.05
2018-06-08T11:00:08.392Z,99936.06
2018-06-08T11:01:14.463Z,99935.70
2018-06-08T11:02:20.485Z,99939.80
2018-06-08T11:03:26.470Z,99936.92
2018-06-08T11:04:32.425Z,99936.05
2018-06-08T11:05:38.431Z,99935.06
2018-06-08T11:06:44.469Z,99932.53
2018-06-08T11:07:50.566Z,99933.25
2018-06-08T11:08:56.611Z,99930.91
2018-06-08T11:10:02.980Z,99930.53
2018-06-08T11:11:09.048Z,99932.34
2018-06-08T11:12:15.063Z,99925.84
2018-06-08T11:13:21.559Z,99932.29
2018-06-08T11:14:27.535Z,99932.34
2018-06-08T11:15:33.483Z,99931.70
2018-06-08T11:16:39.471Z,99919.81
2018-06-08T11:17:45.476Z,99928.02
2018-06-08T11:18:51.489Z,99926.00
2018-06-08T11:19:57.546Z,99929.22
2018-06-08T11:21:03.682Z,99933.53
2018-06-08T11:22:09.686Z,99920.38
2018-06-08T11:23:15.394Z,99925.37
2018-06-08T11:24:21.575Z,99922.56
2018-06-08T11:25:27.594Z,99922.27
2018-06-08T11:26:33.602Z,99919.54
2018-06-08T11:27:39.591Z,99923.70
2018-06-08T11:28:45.581Z,99922.78
2018-06-08T11:29:51.547Z,99910.44
2018-06-08T11:30:57.533Z,99908.69
2018-06-08T11:32:03.529Z,99913.98
2018-06-08T11:33:09.512Z,99921.66
2018-06-08T11:34:15.482Z,99913.14
2018-06-08T11:35:21.457Z,99914.95
2018-06-08T11:36:27.500Z,99906.93
2018-06-08T11:37:33.186Z,99911.09
2018-06-08T11:38:39.269Z,99909.87
2018-06-08T11:39:45.213Z,99911.34
2018-06-08T11:40:51.198Z,99908.18
2018-06-08T11:41:57.207Z,99903.36
2018-06-08T11:43:03.261Z,99907.27
2018-06-08T11:44:09.240Z,99902.95
2018-06-08T11:45:15.193Z,99902.28
2018-06-08T11:46:21.164Z,99903.80
2018-06-08T11:47:27.090Z,99905.99
2018-06-08T11:48:33.059Z,99904.27
2018-06-08T11:49:39.104Z,99909.23
2018-06-08T11:50:45.084Z,99902.30
2018-06-08T11:51:51.062Z,99904.88
2018-06-08T11:52:56.665Z,99898.92
2018-06-08T11:54:02.284Z,99895.66
2018-06-08T11:55:08.212Z,99895.10
2018-06-08T11:56:14.314Z,99892.86
2018-06-08T11:57:20.276Z,99893.18
2018-06-08T11:58:25.978Z,99890.98
2018-06-08T11:59:31.842Z,99890.11
2018-06-08T12:00:37.843Z,99895.77
2018-06-08T12:01:43.829Z,99889.50
2018-06-08T12:02:50.417Z,99889.76
2018-06-08T12:03:56.379Z,99885.58
2018-06-08T12:05:02.342Z,99884.73
2018-06-08T12:06:08.352Z,99885.38
2018-06-08T12:07:14.326Z,99878.27
2018-06-08T12:08:20.255Z,99884.45
2018-06-08T12:09:26.234Z,99882.14
2018-06-08T12:10:32.184Z,99877.00
2018-06-08T12:11:38.512Z,99875.52
2018-06-08T12:12:44.456Z,99883.82
2018-06-08T12:13:50.426Z,99877.36
2018-06-08T12:14:57.182Z,99875.87
2018-06-08T12:16:03.138Z,99877.13
2018-06-08T12:17:09.123Z,99874.94
2018-06-08T12:18:15.366Z,99870.41
2018-06-08T12:19:21.797Z,99863.16
2018-06-08T12:20:28.486Z,99872.00
2018-06-08T12:21:34.447Z,99860.41
2018-06-08T12:22:40.447Z,99865.62
2018-06-08T12:23:46.399Z,99865.55
2018-06-08T12:24:52.362Z,99870.05
2018-06-08T12:25:58.343Z,99864.07
2018-06-08T12:27:04.335Z,99861.12
2018-06-08T12:28:10.333Z,99860.24
2018-06-08T12:29:16.042Z,99856.63
2018-06-08T12:30:21.934Z,99859.99
2018-06-08T12:31:27.903Z,99857.28
2018-06-08T12:32:33.875Z,99853.84
2018-06-08T12:33:39.851Z,99857.20
2018-06-08T12:34:45.559Z,99856.03
2018-06-08T12:35:51.472Z,99852.59
2018-06-08T12:36:57.456Z,99849.69
2018-06-08T12:38:03.413Z,99848.55
2018-06-08T12:39:09.627Z,99853.95
2018-06-08T12:40:15.639Z,99845.72
2018-06-08T12:41:21.611Z,99848.44
2018-06-08T12:42:27.547Z,99843.95